createdAt,value
2023-05-04T00:00:21.622Z,92.266846
2023-05-04T00:01:31.296Z,92.30957
2023-05-04T00:02:38.991Z,92.675781
2023-05-04T00:03:48.783Z,92.980957
2023-05-04T00:04:57.319Z,93.188477
2023-05-04T00:06:06.915Z,93.084717
2023-05-04T00:07:16.625Z,92.877197
2023-05-04T00:08:25.275Z,92.572021
2023-05-04T00:09:32.960Z,92.364502
2023-05-04T00:10:42.733Z,92.163086
2023-05-04T00:11:51.405Z,92.163086
2023-05-04T00:13:01.153Z,92.205811
2023-05-04T00:14:10.769Z,92.30957
2023-05-04T00:15:19.467Z,92.41333
2023-05-04T00:16:28.127Z,92.205811
2023-05-04T00:17:34.823Z,91.998291
2023-05-04T00:18:43.622Z,91.796875
2023-05-04T00:19:53.274Z,91.28418
2023-05-04T00:21:02.019Z,90.814209
2023-05-04T00:22:11.838Z,91.015625
2023-05-04T00:23:20.544Z,90.710449
2023-05-04T00:24:28.211Z,90.85083
2023-05-04T00:25:37.902Z,90.95459
2023-05-04T00:26:45.594Z,91.467285
2023-05-04T00:27:53.422Z,91.986084
2023-05-04T00:29:03.136Z,92.08374
2023-05-04T00:30:12.777Z,92.08374
2023-05-04T00:31:21.469Z,92.144775
2023-05-04T00:32:30.196Z,92.352295
2023-05-04T00:33:39.885Z,92.352295
2023-05-04T00:34:49.571Z,92.08374
2023-05-04T00:35:58.225Z,91.778564
2023-05-04T00:37:05.895Z,91.882324
2023-05-04T00:38:15.611Z,91.882324
2023-05-04T00:39:24.329Z,91.986084
2023-05-04T00:40:40.889Z,92.1875
2023-05-04T00:41:50.541Z,92.39502
2023-05-04T00:42:59.273Z,92.803955
2023-05-04T00:44:08.115Z,93.011475
2023-05-04T00:45:17.631Z,93.011475
2023-05-04T00:46:27.316Z,92.803955
2023-05-04T00:47:36.039Z,92.39502
2023-05-04T00:48:44.688Z,92.08374
2023-05-04T00:49:54.419Z,91.821289
2023-05-04T00:51:03.007Z,91.717529
2023-05-04T00:52:12.661Z,91.61377
2023-05-04T00:53:23.366Z,91.308594
2023-05-04T00:54:33.015Z,91.412354
2023-05-04T00:55:42.674Z,91.821289
2023-05-04T00:56:51.343Z,92.126465
2023-05-04T00:58:00.026Z,92.230225
2023-05-04T00:59:09.757Z,92.480469
2023-05-04T01:00:18.471Z,92.376709
2023-05-04T01:01:28.089Z,92.437744
2023-05-04T01:02:36.808Z,92.687988
2023-05-04T01:03:45.440Z,92.950439
2023-05-04T01:04:55.064Z,92.889404
2023-05-04T01:06:02.716Z,92.74292
2023-05-04T01:07:12.380Z,92.84668
2023-05-04T01:08:22.075Z,92.889404
2023-05-04T01:09:30.757Z,92.993164
2023-05-04T01:10:39.418Z,92.950439
2023-05-04T01:11:48.099Z,92.785645
2023-05-04T01:12:57.861Z,92.480469
2023-05-04T01:14:07.548Z,92.169189
2023-05-04T01:15:15.196Z,92.071533
2023-05-04T01:16:23.990Z,91.864014
2023-05-04T01:17:33.651Z,92.010498
2023-05-04T01:18:42.296Z,91.802979
2023-05-04T01:19:50.960Z,91.802979
2023-05-04T01:20:59.600Z,92.114258
2023-05-04T01:22:08.239Z,92.114258
2023-05-04T01:23:17.953Z,92.315674
2023-05-04T01:24:26.637Z,92.730713
2023-05-04T01:25:34.311Z,92.626953
2023-05-04T01:26:43.988Z,92.626953
2023-05-04T01:27:52.661Z,92.871094
2023-05-04T01:29:02.392Z,93.347168
2023-05-04T01:30:12.069Z,93.444824
2023-05-04T01:31:21.823Z,93.347168
2023-05-04T01:32:31.637Z,93.139648
2023-05-04T01:33:41.109Z,93.035889
2023-05-04T01:34:48.798Z,93.035889
2023-05-04T01:35:58.457Z,93.243408
2023-05-04T01:37:07.100Z,93.548584
2023-05-04T01:38:15.781Z,93.652344
2023-05-04T01:39:25.435Z,93.548584
2023-05-04T01:40:35.133Z,93.548584
2023-05-04T01:41:44.777Z,93.548584
2023-05-04T01:42:53.485Z,93.444824
2023-05-04T01:44:02.130Z,93.139648
2023-05-04T01:45:11.779Z,92.730713
2023-05-04T01:46:20.506Z,92.315674
2023-05-04T01:47:30.181Z,91.802979
2023-05-04T01:48:38.921Z,91.741943
2023-05-04T01:49:48.578Z,91.741943
2023-05-04T01:50:58.243Z,92.053223
2023-05-04T01:52:06.899Z,92.156982
2023-05-04T01:53:16.614Z,92.358398
2023-05-04T01:54:25.313Z,92.871094
2023-05-04T01:55:33.037Z,93.493652
2023-05-04T01:56:41.689Z,93.798828
2023-05-04T01:57:50.353Z,93.902588
2023-05-04T01:58:59.060Z,93.963623
2023-05-04T02:00:07.013Z,93.963623
2023-05-04T02:01:15.393Z,94.067383
2023-05-04T02:02:25.052Z,94.067383
2023-05-04T02:03:33.804Z,93.963623
2023-05-04T02:04:42.372Z,93.756104
2023-05-04T02:05:52.001Z,93.756104
2023-05-04T02:07:00.653Z,93.548584
2023-05-04T02:08:10.298Z,93.389893
2023-05-04T02:09:18.961Z,93.389893
2023-05-04T02:10:27.631Z,93.591309
2023-05-04T02:11:37.316Z,93.695068
2023-05-04T02:12:45.025Z,94.110107
2023-05-04T02:13:54.631Z,94.213867
2023-05-04T02:15:05.286Z,94.311523
2023-05-04T02:16:14.019Z,94.213867
2023-05-04T02:17:22.640Z,94.213867
2023-05-04T02:18:30.305Z,94.110107
2023-05-04T02:19:40.031Z,93.902588
2023-05-04T02:20:49.803Z,93.591309
2023-05-04T02:21:58.418Z,93.493652
2023-05-04T02:23:07.137Z,93.432617
2023-05-04T02:24:16.844Z,93.328857
2023-05-04T02:25:25.525Z,93.536377
2023-05-04T02:26:35.211Z,93.737793
2023-05-04T02:27:44.928Z,93.737793
2023-05-04T02:28:54.578Z,93.737793
2023-05-04T02:30:04.356Z,93.432617
2023-05-04T02:31:12.906Z,93.121338
2023-05-04T02:32:21.566Z,93.121338
2023-05-04T02:33:31.274Z,93.432617
2023-05-04T02:34:40.990Z,93.640137
2023-05-04T02:35:50.649Z,93.841553
2023-05-04T02:36:59.339Z,93.945312
2023-05-04T02:38:07.989Z,93.945312
2023-05-04T02:39:17.671Z,93.841553
2023-05-04T02:40:25.319Z,93.737793
2023-05-04T02:41:33.987Z,93.737793
2023-05-04T02:42:43.631Z,93.737793
2023-05-04T02:43:53.295Z,93.737793
2023-05-04T02:45:02.964Z,93.945312
2023-05-04T02:46:11.725Z,94.152832
2023-05-04T02:47:20.391Z,94.049072
2023-05-04T02:48:29.939Z,94.049072
2023-05-04T02:49:38.652Z,94.152832
2023-05-04T02:50:46.338Z,94.256592
2023-05-04T02:51:55.993Z,94.360352
2023-05-04T02:53:04.719Z,94.665527
2023-05-04T02:54:13.393Z,94.873047
2023-05-04T02:55:22.055Z,94.830322
2023-05-04T02:56:30.743Z,94.622803
2023-05-04T02:57:40.394Z,94.311523
2023-05-04T02:58:48.082Z,94.006348
2023-05-04T02:59:56.759Z,93.640137
2023-05-04T03:01:06.457Z,93.328857
2023-05-04T03:02:15.091Z,92.919922
2023-05-04T03:03:23.801Z,92.547607
2023-05-04T03:04:32.526Z,92.547607
2023-05-04T03:05:42.222Z,92.547607
2023-05-04T03:06:51.920Z,92.755127
2023-05-04T03:07:59.582Z,92.962646
2023-05-04T03:09:08.268Z,92.901611
2023-05-04T03:10:17.892Z,92.590332
2023-05-04T03:11:27.589Z,92.382812
2023-05-04T03:12:36.348Z,92.285156
2023-05-04T03:13:46.998Z,92.224121
2023-05-04T03:14:55.724Z,92.224121
2023-05-04T03:16:05.402Z,92.327881
2023-05-04T03:17:14.038Z,92.736816
2023-05-04T03:18:22.689Z,93.249512
2023-05-04T03:19:31.395Z,93.353271
2023-05-04T03:20:40.098Z,93.664551
2023-05-04T03:21:48.757Z,93.829346
2023-05-04T03:22:58.494Z,93.829346
2023-05-04T03:24:08.187Z,94.030762
2023-05-04T03:25:17.892Z,93.829346
2023-05-04T03:26:27.528Z,93.457031
2023-05-04T03:27:37.191Z,93.353271
2023-05-04T03:28:46.898Z,93.560791
2023-05-04T03:29:56.612Z,93.249512
2023-05-04T03:31:05.279Z,92.633057
2023-05-04T03:32:14.939Z,92.572021
2023-05-04T03:33:24.612Z,92.883301
2023-05-04T03:34:34.469Z,93.353271
2023-05-04T03:35:42.239Z,93.560791
2023-05-04T03:36:49.943Z,93.768311
2023-05-04T03:37:59.608Z,93.97583
2023-05-04T03:39:09.268Z,93.87207
2023-05-04T03:40:17.933Z,93.768311
2023-05-04T03:41:27.611Z,93.768311
2023-05-04T03:42:36.311Z,93.87207
2023-05-04T03:43:45.970Z,94.07959
2023-05-04T03:44:54.620Z,94.281006
2023-05-04T03:46:04.432Z,94.281006
2023-05-04T03:47:12.996Z,94.384766
2023-05-04T03:48:20.669Z,94.281006
2023-05-04T03:49:30.320Z,94.177246
2023-05-04T03:50:39.075Z,93.97583
2023-05-04T03:51:48.753Z,93.768311
2023-05-04T03:52:57.480Z,93.249512
2023-05-04T03:54:06.146Z,92.987061
2023-05-04T03:55:15.860Z,92.987061
2023-05-04T03:56:24.499Z,93.29834
2023-05-04T03:57:33.177Z,93.395996
2023-05-04T03:58:42.806Z,93.603516
2023-05-04T03:59:51.549Z,93.707275
2023-05-04T04:01:01.262Z,94.122314
2023-05-04T04:02:09.958Z,94.226074
2023-05-04T04:03:18.767Z,94.122314
2023-05-04T04:04:28.349Z,94.226074
2023-05-04T04:05:38.065Z,94.018555
2023-05-04T04:06:45.730Z,93.811035
2023-05-04T04:07:55.377Z,93.707275
2023-05-04T04:09:04.049Z,93.499756
2023-05-04T04:10:12.736Z,93.29834
2023-05-04T04:11:21.428Z,93.19458
2023-05-04T04:12:31.118Z,93.29834
2023-05-04T04:13:40.840Z,93.395996
2023-05-04T04:14:50.413Z,93.499756
2023-05-04T04:16:00.220Z,93.707275
2023-05-04T04:17:09.838Z,93.707275
2023-05-04T04:18:18.489Z,93.811035
2023-05-04T04:19:28.146Z,93.811035
2023-05-04T04:20:36.844Z,93.707275
2023-05-04T04:21:46.500Z,93.768311
2023-05-04T04:22:56.276Z,93.97583
2023-05-04T04:24:03.964Z,94.177246
2023-05-04T04:25:12.659Z,94.281006
2023-05-04T04:26:22.321Z,94.592285
2023-05-04T04:27:32.013Z,94.592285
2023-05-04T04:28:40.628Z,94.65332
2023-05-04T04:29:50.332Z,94.75708
2023-05-04T04:30:59.048Z,94.65332
2023-05-04T04:32:08.687Z,94.75708
2023-05-04T04:33:17.338Z,94.65332
2023-05-04T04:34:26.015Z,94.549561
2023-05-04T04:35:35.685Z,94.708252
2023-05-04T04:36:44.323Z,94.708252
2023-05-04T04:37:53.042Z,95.635986
2023-05-04T04:39:02.742Z,96.520996
2023-05-04T04:40:12.444Z,96.520996
2023-05-04T04:41:22.119Z,96.679688
2023-05-04T04:42:29.763Z,96.221924
2023-05-04T04:43:38.400Z,95.812988
2023-05-04T04:44:48.075Z,95.404053
2023-05-04T04:45:56.775Z,95.251465
2023-05-04T04:47:05.513Z,94.63501
2023-05-04T04:48:13.158Z,94.226074
2023-05-04T04:49:21.861Z,93.817139
2023-05-04T04:50:31.536Z,93.505859
2023-05-04T04:51:39.193Z,93.609619
2023-05-04T04:52:47.837Z,93.609619
2023-05-04T04:53:57.524Z,93.505859
2023-05-04T04:55:06.208Z,93.304443
2023-05-04T04:56:14.885Z,93.304443
2023-05-04T04:57:23.536Z,93.304443
2023-05-04T04:58:33.170Z,93.4021
2023-05-04T04:59:42.847Z,93.444824
2023-05-04T05:00:50.546Z,93.920898
2023-05-04T05:02:00.282Z,94.372559
2023-05-04T05:03:09.929Z,94.329834
2023-05-04T05:04:18.614Z,94.781494
2023-05-04T05:05:27.567Z,95.092773
2023-05-04T05:06:36.954Z,95.153809
2023-05-04T05:07:46.614Z,95.153809
2023-05-04T05:08:56.289Z,94.946289
2023-05-04T05:10:05.244Z,94.799805
2023-05-04T05:11:12.678Z,94.592285
2023-05-04T05:12:22.331Z,94.342041
2023-05-04T05:13:31.984Z,94.140625
2023-05-04T05:14:40.674Z,94.140625
2023-05-04T05:15:49.342Z,94.140625
2023-05-04T05:16:59.052Z,94.0979
2023-05-04T05:18:08.930Z,93.786621
2023-05-04T05:19:18.360Z,93.786621
2023-05-04T05:20:27.058Z,93.585205
2023-05-04T05:21:36.788Z,93.682861
2023-05-04T05:22:46.471Z,93.481445
2023-05-04T05:23:55.118Z,93.890381
2023-05-04T05:25:03.814Z,93.786621
2023-05-04T05:26:13.455Z,93.334961
2023-05-04T05:27:22.146Z,93.334961
2023-05-04T05:28:30.773Z,93.334961
2023-05-04T05:29:40.528Z,93.334961
2023-05-04T05:30:50.319Z,93.127441
2023-05-04T05:31:59.880Z,93.084717
2023-05-04T05:33:08.597Z,93.292236
2023-05-04T05:34:17.304Z,92.834473
2023-05-04T05:35:26.998Z,92.633057
2023-05-04T05:36:36.718Z,92.834473
2023-05-04T05:37:45.373Z,92.382812
2023-05-04T05:38:54.067Z,92.321777
2023-05-04T05:40:03.957Z,92.181396
2023-05-04T05:41:13.449Z,91.973877
2023-05-04T05:42:23.142Z,92.321777
2023-05-04T05:43:32.840Z,92.382812
2023-05-04T05:44:41.688Z,92.181396
2023-05-04T05:45:50.367Z,92.034912
2023-05-04T05:46:59.034Z,91.827393
2023-05-04T05:48:08.804Z,91.522217
2023-05-04T05:49:16.464Z,91.522217
2023-05-04T05:50:26.212Z,91.479492
2023-05-04T05:51:35.847Z,91.583252
2023-05-04T05:52:45.597Z,91.271973
2023-05-04T05:53:54.292Z,91.333008
2023-05-04T05:55:03.101Z,91.027832
2023-05-04T05:56:11.641Z,90.863037
2023-05-04T05:57:21.335Z,90.618896
2023-05-04T05:58:30.022Z,90.515137
2023-05-04T05:59:38.796Z,90.209961
2023-05-04T06:00:48.495Z,89.96582
2023-05-04T06:01:57.127Z,89.758301
2023-05-04T06:03:07.026Z,89.758301
2023-05-04T06:04:15.840Z,89.819336
2023-05-04T06:05:25.707Z,89.819336
2023-05-04T06:06:35.489Z,89.4104
2023-05-04T06:07:45.190Z,89.0625
2023-05-04T06:08:54.008Z,88.549805
2023-05-04T06:10:02.896Z,88.446045
2023-05-04T06:11:11.490Z,88.043213
2023-05-04T06:12:20.195Z,88.140869
2023-05-04T06:13:28.854Z,88.140869
2023-05-04T06:14:37.526Z,87.896729
2023-05-04T06:15:47.371Z,87.695312
2023-05-04T06:16:56.082Z,87.591553
2023-05-04T06:18:05.788Z,87.139893
2023-05-04T06:19:15.489Z,86.938477
2023-05-04T06:20:25.204Z,87.347412
2023-05-04T06:21:34.934Z,87.304688
2023-05-04T06:22:43.794Z,86.529541
2023-05-04T06:23:53.381Z,86.38916
2023-05-04T06:25:06.023Z,86.38916
2023-05-04T06:26:13.741Z,86.346436
2023-05-04T06:27:24.185Z,85.772705
2023-05-04T06:28:32.157Z,85.266113
2023-05-04T06:29:40.799Z,85.369873
2023-05-04T06:30:49.567Z,84.448242
2023-05-04T06:31:59.274Z,84.411621
2023-05-04T06:33:09.016Z,84.307861
2023-05-04T06:34:18.643Z,84.307861
2023-05-04T06:35:27.408Z,83.959961
2023-05-04T06:36:35.114Z,83.453369
2023-05-04T06:37:44.816Z,83.111572
2023-05-04T06:38:53.605Z,82.702637
2023-05-04T06:40:03.291Z,82.635498
2023-05-04T06:41:12.980Z,83.148193
2023-05-04T06:42:21.748Z,82.763672
2023-05-04T06:43:31.389Z,82.214355
2023-05-04T06:44:40.128Z,81.811523
2023-05-04T06:45:47.868Z,81.976318
2023-05-04T06:46:57.527Z,81.121826
2023-05-04T06:48:07.263Z,80.310059
2023-05-04T06:49:17.909Z,80.310059
2023-05-04T06:50:27.660Z,80.474854
2023-05-04T06:51:37.327Z,79.663086
2023-05-04T06:52:47.006Z,79.35791
2023-05-04T06:53:56.728Z,78.912354
2023-05-04T06:55:05.462Z,78.607178
2023-05-04T06:56:15.191Z,78.570557
2023-05-04T06:57:23.955Z,78.131104
2023-05-04T06:58:33.645Z,77.11792
2023-05-04T06:59:42.316Z,77.246094
2023-05-04T07:00:51.024Z,76.599121
2023-05-04T07:02:00.667Z,76.263428
2023-05-04T07:03:10.348Z,74.743652
2023-05-04T07:04:19.994Z,74.200439
2023-05-04T07:05:29.710Z,73.895264
2023-05-04T07:06:39.395Z,73.455811
2023-05-04T07:07:51.068Z,74.133301
2023-05-04T07:08:58.788Z,73.99292
2023-05-04T07:10:08.633Z,72.375488
2023-05-04T07:11:18.255Z,72.845459
2023-05-04T07:12:27.895Z,72.210693
2023-05-04T07:13:36.534Z,72.003174
2023-05-04T07:14:46.197Z,71.30127
2023-05-04T07:15:54.916Z,70.959473
2023-05-04T07:17:03.572Z,70.727539
2023-05-04T07:18:13.337Z,69.854736
2023-05-04T07:19:21.991Z,70.758057
2023-05-04T07:20:31.637Z,70.19043
2023-05-04T07:21:39.387Z,70.288086
2023-05-04T07:22:47.085Z,70.6604
2023-05-04T07:23:55.775Z,69.750977
2023-05-04T07:25:05.410Z,70.123291
2023-05-04T07:26:15.132Z,70.019531
2023-05-04T07:27:24.762Z,70.019531
2023-05-04T07:28:33.429Z,69.110107
2023-05-04T07:29:43.125Z,68.908691
2023-05-04T07:30:51.816Z,69.415283
2023-05-04T07:32:02.513Z,68.475342
2023-05-04T07:33:12.278Z,67.767334
2023-05-04T07:34:21.487Z,67.736816
2023-05-04T07:35:30.549Z,67.840576
2023-05-04T07:36:42.651Z,68.243408
2023-05-04T07:37:50.342Z,68.005371
2023-05-04T07:39:00.033Z,66.699219
2023-05-04T07:40:07.928Z,66.796875
2023-05-04T07:41:17.487Z,66.864014
2023-05-04T07:42:25.209Z,67.028809
2023-05-04T07:43:32.801Z,66.796875
2023-05-04T07:44:42.477Z,65.692139
2023-05-04T07:45:51.247Z,66.595459
2023-05-04T07:46:58.933Z,66.967773
2023-05-04T07:48:08.633Z,65.460205
2023-05-04T07:49:17.286Z,65.960693
2023-05-04T07:50:26.957Z,66.027832
2023-05-04T07:51:36.702Z,66.19873
2023-05-04T07:52:45.367Z,64.361572
2023-05-04T07:53:55.030Z,64.361572
2023-05-04T07:55:04.715Z,64.331055
2023-05-04T07:56:14.420Z,65.234375
2023-05-04T07:57:23.192Z,64.898682
2023-05-04T07:58:33.186Z,64.068604
2023-05-04T07:59:42.546Z,63.464355
2023-05-04T08:00:51.206Z,63.635254
2023-05-04T08:01:59.943Z,62.60376
2023-05-04T08:03:09.620Z,61.193848
2023-05-04T08:04:18.265Z,60.119629
2023-05-04T08:05:26.940Z,61.126709
2023-05-04T08:06:37.609Z,60.150146
2023-05-04T08:07:47.270Z,60.650635
2023-05-04T08:08:56.937Z,61.328125
2023-05-04T08:10:05.843Z,60.424805
2023-05-04T08:11:20.288Z,59.521484
2023-05-04T08:12:25.982Z,59.216309
2023-05-04T08:13:35.721Z,59.991455
2023-05-04T08:14:45.570Z,58.813477
2023-05-04T08:15:55.204Z,59.191895
2023-05-04T08:17:04.884Z,59.490967
2023-05-04T08:18:14.573Z,58.215332
2023-05-04T08:19:22.283Z,59.619141
2023-05-04T08:20:29.936Z,59.661865
2023-05-04T08:21:39.697Z,57.15332
2023-05-04T08:22:49.459Z,58.831787
2023-05-04T08:23:58.075Z,59.002686
2023-05-04T08:25:07.073Z,57.299805
2023-05-04T08:26:15.492Z,56.402588
2023-05-04T08:27:25.195Z,55.9021
2023-05-04T08:28:32.825Z,55.596924
2023-05-04T08:29:42.652Z,56.402588
2023-05-04T08:30:52.562Z,55.554199
2023-05-04T08:32:01.425Z,56.225586
2023-05-04T08:33:10.045Z,56.12793
2023-05-04T08:34:18.728Z,55.151367
2023-05-04T08:35:27.409Z,55.578613
2023-05-04T08:36:37.073Z,56.054688
2023-05-04T08:37:45.785Z,55.047607
2023-05-04T08:38:54.453Z,55.249023
2023-05-04T08:40:04.157Z,54.101562
2023-05-04T08:41:12.811Z,55.981445
2023-05-04T08:42:22.531Z,55.780029
2023-05-04T08:43:32.248Z,54.949951
2023-05-04T08:44:42.722Z,54.473877
2023-05-04T08:45:50.717Z,55.249023
2023-05-04T08:46:58.490Z,55.023193
2023-05-04T08:48:07.109Z,54.699707
2023-05-04T08:49:16.749Z,53.692627
2023-05-04T08:50:26.416Z,53.723145
2023-05-04T08:51:35.063Z,55.096436
2023-05-04T08:52:43.833Z,54.772949
2023-05-04T08:53:53.513Z,54.943848
2023-05-04T08:55:03.252Z,53.515625
2023-05-04T08:56:11.886Z,53.515625
2023-05-04T08:57:21.579Z,53.216553
2023-05-04T08:58:31.248Z,52.716064
2023-05-04T08:59:40.934Z,53.02124
2023-05-04T09:00:50.694Z,54.095459
2023-05-04T09:01:59.398Z,52.966309
2023-05-04T09:03:08.063Z,54.040527
2023-05-04T09:04:18.701Z,53.015137
2023-05-04T09:05:26.439Z,51.99585
2023-05-04T09:06:35.102Z,52.191162
2023-05-04T09:07:44.764Z,51.293945
2023-05-04T09:08:53.460Z,50.720215
2023-05-04T09:10:02.209Z,50.720215
2023-05-04T09:11:11.921Z,51.422119
2023-05-04T09:12:21.569Z,51.495361
2023-05-04T09:13:31.218Z,51.123047
2023-05-04T09:14:39.963Z,50.720215
2023-05-04T09:15:46.630Z,52.319336
2023-05-04T09:16:56.308Z,51.397705
2023-05-04T09:18:05.975Z,52.270508
2023-05-04T09:19:14.661Z,50.250244
2023-05-04T09:20:24.422Z,51.147461
2023-05-04T09:21:33.086Z,49.6521
2023-05-04T09:22:42.737Z,50.469971
2023-05-04T09:23:50.464Z,51.568604
2023-05-04T09:24:59.149Z,51.074219
2023-05-04T09:26:08.816Z,50.848389
2023-05-04T09:27:17.570Z,50.872803
2023-05-04T09:28:28.786Z,50.994873
2023-05-04T09:29:36.979Z,52.246094
2023-05-04T09:30:46.673Z,51.422119
2023-05-04T09:31:56.325Z,51.220703
2023-05-04T09:33:04.037Z,50.323486
2023-05-04T09:34:12.663Z,50.427246
2023-05-04T09:35:32.276Z,49.54834
2023-05-04T09:36:32.963Z,51.049805
2023-05-04T09:37:42.672Z,49.749756
2023-05-04T09:38:51.385Z,51.544189
2023-05-04T09:40:00.161Z,50.848389
2023-05-04T09:41:09.797Z,50.622559
2023-05-04T09:42:19.479Z,50
2023-05-04T09:43:29.230Z,50.024414
2023-05-04T09:44:38.883Z,50.10376
2023-05-04T09:45:47.572Z,50
2023-05-04T09:46:57.256Z,49.578857
2023-05-04T09:48:07.032Z,49.206543
2023-05-04T09:49:15.693Z,50.274658
2023-05-04T09:50:25.425Z,50.396729
2023-05-04T09:51:34.084Z,50.848389
2023-05-04T09:52:43.761Z,50.799561
2023-05-04T09:53:52.428Z,51.171875
2023-05-04T09:55:02.422Z,48.657227
2023-05-04T09:56:11.912Z,48.657227
2023-05-04T09:57:21.604Z,48.339844
2023-05-04T09:58:30.287Z,46.844482
2023-05-04T09:59:39.953Z,46.990967
2023-05-04T10:00:48.604Z,48.907471
2023-05-04T10:02:00.379Z,48.681641
2023-05-04T10:03:08.957Z,49.157715
2023-05-04T10:04:18.646Z,48.809814
2023-05-04T10:05:28.377Z,47.521973
2023-05-04T10:06:37.025Z,46.105957
2023-05-04T10:07:45.804Z,46.105957
2023-05-04T10:08:55.514Z,46.405029
2023-05-04T10:10:05.111Z,47.375488
2023-05-04T10:11:14.845Z,47.55249
2023-05-04T10:12:22.534Z,47.131348
2023-05-04T10:13:30.208Z,45.544434
2023-05-04T10:14:40.863Z,45.739746
2023-05-04T10:15:49.591Z,44.793701
2023-05-04T10:16:58.255Z,45.410156
2023-05-04T10:18:07.946Z,46.5271
2023-05-04T10:19:17.640Z,47.418213
2023-05-04T10:20:27.347Z,46.307373
2023-05-04T10:21:36.122Z,47.045898
2023-05-04T10:22:45.768Z,46.42334
2023-05-04T10:23:55.422Z,46.228027
2023-05-04T10:25:03.137Z,45.629883
2023-05-04T10:26:11.764Z,45.330811
2023-05-04T10:27:20.407Z,44.415283
2023-05-04T10:28:30.080Z,46.203613
2023-05-04T10:29:39.769Z,47.296143
2023-05-04T10:30:47.433Z,46.380615
2023-05-04T10:31:56.246Z,46.380615
2023-05-04T10:33:05.907Z,46.557617
2023-05-04T10:34:14.486Z,44.396973
2023-05-04T10:35:24.178Z,44.793701
2023-05-04T10:36:32.835Z,43.444824
2023-05-04T10:37:41.514Z,45.477295
2023-05-04T10:38:51.196Z,45.153809
2023-05-04T10:39:58.907Z,44.659424
2023-05-04T10:41:07.642Z,44.281006
2023-05-04T10:42:17.361Z,44.854736
2023-05-04T10:43:27.010Z,45.135498
2023-05-04T10:44:36.775Z,44.976807
2023-05-04T10:45:45.466Z,46.472168
2023-05-04T10:46:55.140Z,45.135498
2023-05-04T10:48:04.905Z,46.282959
2023-05-04T10:49:13.519Z,46.734619
2023-05-04T10:50:22.230Z,44.152832
2023-05-04T10:51:39.041Z,44.726562
2023-05-04T10:52:42.628Z,43.713379
2023-05-04T10:53:52.342Z,44.40918
2023-05-04T10:55:02.404Z,44.329834
2023-05-04T10:56:10.899Z,44.274902
2023-05-04T10:57:20.581Z,45.068359
2023-05-04T10:58:28.268Z,44.750977
2023-05-04T10:59:37.964Z,45.343018
2023-05-04T11:00:47.807Z,46.020508
2023-05-04T11:01:56.454Z,43.914795
2023-05-04T11:03:04.362Z,42.822266
2023-05-04T11:04:12.882Z,43.395996
2023-05-04T11:05:21.538Z,44.665527
2023-05-04T11:06:31.192Z,42.486572
2023-05-04T11:07:40.893Z,42.504883
2023-05-04T11:08:50.563Z,41.711426
2023-05-04T11:09:59.321Z,41.516113
2023-05-04T11:11:08.037Z,39.923096
2023-05-04T11:12:16.852Z,41.949463
2023-05-04T11:13:25.546Z,44.415283
2023-05-04T11:14:35.204Z,43.4021
2023-05-04T11:15:44.903Z,41.894531
2023-05-04T11:16:54.617Z,42.651367
2023-05-04T11:18:04.249Z,43.444824
2023-05-04T11:19:14.922Z,43.52417
2023-05-04T11:20:23.592Z,44.616699
2023-05-04T11:21:32.292Z,46.063232
2023-05-04T11:22:41.950Z,47.052002
2023-05-04T11:23:51.625Z,47.009277
2023-05-04T11:25:01.339Z,46.588135
2023-05-04T11:26:10.024Z,44.805908
2023-05-04T11:27:19.746Z,47.65625
2023-05-04T11:28:28.408Z,45.776367
2023-05-04T11:29:37.076Z,45.97168
2023-05-04T11:30:46.939Z,43.774414
2023-05-04T11:31:55.699Z,41.790771
2023-05-04T11:33:05.352Z,41.394043
2023-05-04T11:34:14.937Z,41.772461
2023-05-04T11:35:23.595Z,43.334961
2023-05-04T11:36:33.329Z,43.804932
2023-05-04T11:37:40.968Z,43.609619
2023-05-04T11:38:49.642Z,43.884277
2023-05-04T11:39:59.311Z,42.895508
2023-05-04T11:41:09.014Z,43.664551
2023-05-04T11:42:18.643Z,43.566895
2023-05-04T11:43:28.336Z,43.07251
2023-05-04T11:44:37.050Z,42.498779
2023-05-04T11:45:46.774Z,42.895508
2023-05-04T11:46:55.443Z,43.096924
2023-05-04T11:48:04.177Z,43.414307
2023-05-04T11:49:13.817Z,43.017578
2023-05-04T11:50:22.481Z,43.786621
2023-05-04T11:51:31.148Z,43.07251
2023-05-04T11:52:39.830Z,43.884277
2023-05-04T11:53:49.481Z,41.809082
2023-05-04T11:54:59.160Z,42.816162
2023-05-04T11:56:07.913Z,44.281006
2023-05-04T11:57:17.639Z,42.08374
2023-05-04T11:58:27.298Z,41.571045
2023-05-04T11:59:37.019Z,40.979004
2023-05-04T12:00:45.687Z,41.375732
2023-05-04T12:01:54.393Z,40.466309
2023-05-04T12:03:03.183Z,39.990234
2023-05-04T12:04:12.765Z,39.678955
2023-05-04T12:05:21.670Z,41.473389
2023-05-04T12:06:30.463Z,40.368652
2023-05-04T12:07:40.228Z,41.137695
2023-05-04T12:08:48.900Z,42.62085
2023-05-04T12:09:58.548Z,42.498779
2023-05-04T12:11:07.293Z,41.101074
2023-05-04T12:12:15.975Z,39.990234
2023-05-04T12:13:25.737Z,41.357422
2023-05-04T12:14:35.369Z,40.148926
2023-05-04T12:15:44.031Z,39.459229
2023-05-04T12:16:53.736Z,40.032959
2023-05-04T12:18:03.605Z,42.047119
2023-05-04T12:19:11.380Z,40.246582
2023-05-04T12:20:20.747Z,39.245605
2023-05-04T12:21:29.414Z,39.147949
2023-05-04T12:22:39.113Z,39.422607
2023-05-04T12:23:47.866Z,39.16626
2023-05-04T12:24:56.537Z,39.953613
2023-05-04T12:26:06.225Z,39.953613
2023-05-04T12:27:14.927Z,38.928223
2023-05-04T12:28:23.578Z,38.909912
2023-05-04T12:29:32.540Z,37.609863
2023-05-04T12:30:42.130Z,37.414551
2023-05-04T12:31:50.934Z,37.988281
2023-05-04T12:32:59.582Z,37.689209
2023-05-04T12:34:09.240Z,38.476562
2023-05-04T12:35:18.954Z,38.378906
2023-05-04T12:36:27.624Z,38.848877
2023-05-04T12:37:36.290Z,39.422607
2023-05-04T12:38:46.109Z,39.996338
2023-05-04T12:39:54.693Z,39.544678
2023-05-04T12:41:04.553Z,38.970947
2023-05-04T12:42:13.136Z,38.85498
2023-05-04T12:43:22.909Z,38.067627
2023-05-04T12:44:31.557Z,37.37793
2023-05-04T12:45:41.390Z,37.573242
2023-05-04T12:46:49.970Z,36.883545
2023-05-04T12:47:58.668Z,35.723877
2023-05-04T12:49:08.297Z,35.821533
2023-05-04T12:50:18.066Z,36.035156
2023-05-04T12:51:27.773Z,36.590576
2023-05-04T12:52:36.474Z,36.376953
2023-05-04T12:53:46.137Z,36.572266
2023-05-04T12:54:54.958Z,36.437988
2023-05-04T12:56:04.640Z,34.94873
2023-05-04T12:57:13.293Z,36.047363
2023-05-04T12:58:21.953Z,36.749268
2023-05-04T12:59:32.011Z,36.834717
2023-05-04T13:00:39.710Z,37.036133
2023-05-04T13:01:50.480Z,37.689209
2023-05-04T13:03:00.183Z,36.590576
2023-05-04T13:04:08.745Z,36.767578
2023-05-04T13:05:17.409Z,36.853027
2023-05-04T13:06:26.074Z,36.242676
2023-05-04T13:07:34.811Z,36.401367
2023-05-04T13:08:45.632Z,36.206055
2023-05-04T13:09:54.358Z,37.127686
2023-05-04T13:11:03.054Z,37.615967